Terminal Aerodrome Forecast
Issued by NWS

Home | Current Version | Previous Version | Text Only | Print | Product List | Glossary On
Versions: 1 2 3 4 5 6 7 8 9 10 11 12
000
FTUS46 KHNX 272320
TAFFAT
TAF
KFAT 272320Z 2800/2824 30008KT P6SM SKC
      TEMPO 2803/2807 32013G19KT
     FM280900 VRB04KT P6SM SKC
     FM282300 30008KT P6SM SKC=

USA.gov is the U.S. government's official web portal to all federal, state and local government web resources and services.